KTAD

Perry Stokes Airport

Trinidad, Colorado, USA
METAR KTAD 140654Z AUTO 25015KT 10SM CLR M07/M13 A3029 RMK AO2 SLP281 T10671128 400281089
Observed Flight Rules
Dec-14 @ 06:54 UTC (47 minutes ago) Visual Flight Rules
Wind Visibility Clouds
250° at 15 knots 10 miles
  • Clear skies
Temperatures Readings
Current -7°C / 19°F
Dewpoint -13°C / 9°F
Humidity 63%
Altimeter 30.29" Hg
Pressure 1028.1 hPa
Elevation 1756
METAR KTAD 140654Z AUTO 25015KT 10SM CLR M07/M13 A3029 RMK AO2 SLP281 T10671128 400281089
Observed Flight Rules
Dec-14 @ 06:54 UTC
(47 minutes ago)
VFR
Wind Visibility
250° at 15 knots 10 miles
Clouds
  • Clear skies
Temperature Dewpoint
-7°C / 19°F -13°C / 9°F
Humidity Altimeter Pressure
63% 30.29" Hg 1028.1 hPa